Time;durP1;ratioP1;P1;durP2;ratioP2;P2;SDS_P1;SDS_P2;PMS_P1;PMS_P2;Temp;Humidity;BMP_temperature;BMP_pressure;BME280_temperature;BME280_humidity;BME280_pressure;Samples;Min_cycle;Max_cycle;Signal;HPM_P1;HPM_P2
2023/05/31 00:01:09;;;;;;;10.63;4.78;;;;;;;12.04;100.00;102678.50;5093273;28;20695;-47
2023/05/31 00:03:35;;;;;;;8.95;4.30;;;;;;;11.95;100.00;102673.97;5094507;28;20430;-47
2023/05/31 00:06:01;;;;;;;18.60;5.22;;;;;;;11.95;100.00;102673.97;5078505;28;20031;-46
2023/05/31 00:08:26;;;;;;;11.63;4.95;;;;;;;11.98;100.00;102676.41;5092380;28;20028;-46
2023/05/31 00:10:51;;;;;;;10.70;4.65;;;;;;;11.96;100.00;102673.00;5094382;28;20103;-49
2023/05/31 00:13:17;;;;;;;14.32;4.85;;;;;;;11.96;100.00;102674.84;5094176;28;20111;-47
2023/05/31 00:15:42;;;;;;;7.25;4.32;;;;;;;11.97;100.00;102676.53;5093540;28;20077;-44
2023/05/31 00:18:07;;;;;;;7.72;4.70;;;;;;;11.95;100.00;102673.97;5093098;28;20035;-47
2023/05/31 00:20:33;;;;;;;10.38;5.03;;;;;;;11.94;100.00;102683.06;5094298;28;20031;-49
2023/05/31 00:22:58;;;;;;;9.25;4.93;;;;;;;11.92;100.00;102684.22;5094169;28;20020;-47
2023/05/31 00:25:23;;;;;;;10.93;4.90;;;;;;;11.92;100.00;102679.66;5082614;28;20034;-46
2023/05/31 00:27:49;;;;;;;6.82;4.30;;;;;;;11.91;100.00;102677.97;5073490;28;20107;-45
2023/05/31 00:30:14;;;;;;;11.27;5.40;;;;;;;11.87;100.00;102681.94;5073403;28;20025;-47
2023/05/31 00:32:40;;;;;;;10.73;4.85;;;;;;;11.88;100.00;102674.72;5081427;28;20067;-45
2023/05/31 00:35:05;;;;;;;9.73;6.10;;;;;;;11.91;100.00;102675.28;5093482;28;20107;-50
2023/05/31 00:37:36;;;;;;;9.10;4.80;;;;;;;11.89;100.00;102676.41;5090883;28;20725;-43
2023/05/31 00:40:03;;;;;;;10.00;5.00;;;;;;;11.88;100.00;102678.28;5093547;28;20035;-45
2023/05/31 00:42:28;;;;;;;9.43;4.93;;;;;;;11.81;100.00;102677.94;5093396;28;20095;-45
2023/05/31 00:44:53;;;;;;;11.05;4.57;;;;;;;11.84;100.00;102683.06;5081219;28;20043;-46
2023/05/31 00:47:19;;;;;;;12.00;4.60;;;;;;;11.80;100.00;102670.88;5084494;28;20024;-48
2023/05/31 00:49:46;;;;;;;9.63;5.25;;;;;;;11.81;100.00;102685.19;5071796;28;20025;-46
2023/05/31 00:52:11;;;;;;;8.18;4.80;;;;;;;11.76;100.00;102679.38;5057612;28;20543;-46
2023/05/31 00:54:37;;;;;;;12.18;5.53;;;;;;;11.77;100.00;102681.06;5071886;28;20107;-45
2023/05/31 00:57:02;;;;;;;10.75;5.13;;;;;;;11.71;100.00;102687.06;5061136;28;20049;-47
2023/05/31 00:59:29;;;;;;;12.27;4.60;;;;;;;11.69;100.00;102684.53;5093689;28;20040;-45
2023/05/31 01:01:55;;;;;;;9.40;4.78;;;;;;;11.68;100.00;102685.50;5083145;28;20029;-46
2023/05/31 01:04:21;;;;;;;8.55;5.18;;;;;;;11.65;100.00;102681.25;5054999;28;20493;-48
2023/05/31 01:06:49;;;;;;;12.48;4.90;;;;;;;11.62;100.00;102678.84;5089479;28;20103;-46
2023/05/31 01:09:15;;;;;;;11.30;5.68;;;;;;;11.62;100.00;102686.09;5093526;28;20092;-47
2023/05/31 01:11:43;;;;;;;11.43;5.38;;;;;;;11.63;100.00;102685.94;5092098;28;20028;-49
2023/05/31 01:14:17;;;;;;;12.52;6.22;;;;;;;11.60;100.00;102686.22;5074475;28;20025;-46
2023/05/31 01:16:52;;;;;;;8.55;4.93;;;;;;;11.60;100.00;102686.22;5073421;28;20024;-46
2023/05/31 01:19:39;;;;;;;12.85;5.53;;;;;;;11.60;100.00;102678.13;5073304;28;20036;-46
2023/05/31 01:22:18;;;;;;;11.00;5.68;;;;;;;11.51;100.00;102679.00;5056371;28;20486;-45
2023/05/31 01:25:07;;;;;;;13.82;5.35;;;;;;;11.49;100.00;102680.97;5093109;28;20024;-44
2023/05/31 01:27:33;;;;;;;11.63;5.20;;;;;;;11.49;100.00;102672.06;5080915;28;20158;-46
2023/05/31 01:29:59;;;;;;;9.85;5.57;;;;;;;11.46;100.00;102677.75;5074392;28;20534;-44
2023/05/31 01:32:24;;;;;;;11.82;5.38;;;;;;;11.43;100.00;102679.72;5054775;28;20036;-45
2023/05/31 01:34:50;;;;;;;12.15;5.45;;;;;;;11.43;100.00;102682.41;5090897;28;20068;-44
2023/05/31 01:37:15;;;;;;;12.13;5.65;;;;;;;11.39;100.00;102677.44;5082828;28;20062;-46
2023/05/31 01:39:41;;;;;;;11.70;5.57;;;;;;;11.34;100.00;102680.56;5072546;28;20035;-46
2023/05/31 01:42:08;;;;;;;12.02;5.60;;;;;;;11.36;100.00;102680.44;5072160;28;20178;-44
2023/05/31 01:44:35;;;;;;;11.70;5.70;;;;;;;11.31;100.00;102678.16;5089613;28;20107;-47
2023/05/31 01:47:00;;;;;;;15.65;6.05;;;;;;;11.27;100.00;102678.56;5073637;28;20047;-46
2023/05/31 01:49:26;;;;;;;13.50;5.57;;;;;;;11.25;100.00;102691.34;5074091;28;20024;-45
2023/05/31 01:51:51;;;;;;;9.32;5.28;;;;;;;11.20;100.00;102692.63;5088495;28;20535;-45
2023/05/31 01:54:17;;;;;;;10.50;5.65;;;;;;;11.19;100.00;102692.78;5090527;28;20043;-48
2023/05/31 01:56:42;;;;;;;14.88;6.40;;;;;;;11.15;100.00;102692.19;5077905;28;20040;-45
2023/05/31 01:59:08;;;;;;;22.92;6.50;;;;;;;11.14;100.00;102685.09;5091408;28;20383;-46
2023/05/31 02:01:35;;;;;;;14.85;6.97;;;;;;;11.14;100.00;102690.50;5091020;28;20364;-48
2023/05/31 02:04:01;;;;;;;12.95;6.50;;;;;;;11.14;100.00;102686.94;5090852;28;20027;-46
2023/05/31 02:06:29;;;;;;;14.35;6.05;;;;;;;11.08;100.00;102691.03;5086211;28;20034;-46
2023/05/31 02:08:54;;;;;;;16.55;6.50;;;;;;;11.09;100.00;102686.53;5070836;28;20394;-45
2023/05/31 02:11:20;;;;;;;10.98;6.47;;;;;;;11.14;100.00;102690.50;5084100;28;20529;-45
2023/05/31 02:13:45;;;;;;;12.02;6.32;;;;;;;11.10;100.00;102688.22;5091550;28;20440;-46
2023/05/31 02:16:11;;;;;;;14.77;6.22;;;;;;;11.05;100.00;102687.78;5088192;28;20020;-46
2023/05/31 02:18:36;;;;;;;15.73;7.53;;;;;;;11.10;100.00;102689.06;5075309;28;20106;-46
2023/05/31 02:21:02;;;;;;;12.98;6.68;;;;;;;11.06;100.00;102690.34;5075657;28;20056;-44
2023/05/31 02:23:27;;;;;;;16.33;7.30;;;;;;;11.07;100.00;102692.03;5071664;28;20032;-44
2023/05/31 02:25:55;;;;;;;14.65;7.25;;;;;;;11.01;100.00;102689.91;5072100;28;20086;-47
2023/05/31 02:28:20;;;;;;;17.92;7.40;;;;;;;11.02;100.00;102698.84;5074948;28;20020;-43
2023/05/31 02:30:55;;;;;;;14.43;6.68;;;;;;;10.99;100.00;102687.34;5086978;28;20043;-46
2023/05/31 02:33:21;;;;;;;16.73;8.07;;;;;;;10.98;100.00;102690.19;5069980;28;20024;-47
2023/05/31 02:35:47;;;;;;;15.60;7.28;;;;;;;11.00;100.00;102698.97;5078985;28;20032;-46
2023/05/31 02:38:12;;;;;;;12.63;7.13;;;;;;;11.00;100.00;102685.50;5072317;28;20549;-45
2023/05/31 02:40:38;;;;;;;19.98;7.97;;;;;;;11.00;100.00;102690.88;5076690;28;20036;-47
2023/05/31 02:43:03;;;;;;;14.13;6.95;;;;;;;10.97;100.00;102688.47;5079884;28;20032;-45
2023/05/31 02:45:28;;;;;;;15.93;7.53;;;;;;;10.96;100.00;102682.25;5072632;28;20098;-45
2023/05/31 02:47:54;;;;;;;17.67;8.00;;;;;;;11.00;100.00;102685.50;5089723;28;20040;-47
2023/05/31 02:50:20;;;;;;;15.13;7.07;;;;;;;10.98;100.00;102682.97;5073380;28;20051;-48
2023/05/31 02:52:45;;;;;;;17.90;7.90;;;;;;;11.01;100.00;102681.81;5091214;28;20064;-45
2023/05/31 02:55:10;;;;;;;16.92;7.75;;;;;;;10.96;100.00;102682.25;5088925;28;20032;-44
2023/05/31 02:57:36;;;;;;;14.80;7.63;;;;;;;10.98;100.00;102682.97;5088886;28;20478;-45
2023/05/31 03:00:10;;;;;;;19.10;7.82;;;;;;;10.99;100.00;102676.56;5090746;28;20024;-45
2023/05/31 03:02:37;;;;;;;13.45;7.25;;;;;;;10.97;100.00;102675.84;5091637;28;20082;-45
2023/05/31 03:05:04;;;;;;;17.88;7.85;;;;;;;10.94;100.00;102686.06;5091745;28;20028;-45
2023/05/31 03:07:29;;;;;;;17.80;8.35;;;;;;;10.92;100.00;102685.34;5076215;28;20109;-46
2023/05/31 03:09:55;;;;;;;18.80;7.93;;;;;;;10.90;100.00;102681.94;5071945;28;20082;-43
2023/05/31 03:12:21;;;;;;;20.55;7.95;;;;;;;10.89;100.00;102674.84;5070148;28;20107;-45
2023/05/31 03:14:46;;;;;;;20.70;7.63;;;;;;;10.87;100.00;102676.81;5071524;28;20020;-45
2023/05/31 03:17:11;;;;;;;15.55;6.95;;;;;;;10.88;100.00;102679.41;5071825;28;20078;-45
2023/05/31 03:19:37;;;;;;;15.63;8.27;;;;;;;10.86;100.00;102672.44;5071304;28;20344;-45
2023/05/31 03:22:02;;;;;;;16.23;7.13;;;;;;;10.82;100.00;102671.00;5070029;28;20029;-43
2023/05/31 03:24:27;;;;;;;15.57;6.93;;;;;;;10.82;100.00;102671.88;5074728;28;20115;-49
2023/05/31 03:26:54;;;;;;;15.88;7.03;;;;;;;10.83;100.00;102676.25;5066755;28;20013;-47
2023/05/31 03:29:20;;;;;;;21.60;7.68;;;;;;;10.82;100.00;102674.56;5070986;28;20527;-45
2023/05/31 03:31:45;;;;;;;17.58;7.78;;;;;;;10.82;100.00;102668.31;5080847;28;20103;-46
2023/05/31 03:34:11;;;;;;;11.68;6.78;;;;;;;10.83;100.00;102665.50;5089509;28;20393;-46
2023/05/31 03:36:36;;;;;;;16.65;6.95;;;;;;;10.81;100.00;102664.78;5081477;28;20119;-47
2023/05/31 03:39:03;;;;;;;13.57;7.30;;;;;;;10.82;100.00;102653.03;5074734;28;20033;-49
2023/05/31 03:41:29;;;;;;;18.08;6.95;;;;;;;10.81;100.00;102661.22;5082145;28;20020;-45
2023/05/31 03:43:54;;;;;;;15.48;6.68;;;;;;;10.79;100.00;102663.19;5087873;28;20043;-47
2023/05/31 03:46:20;;;;;;;14.05;7.07;;;;;;;10.80;100.00;102667.63;5093528;28;20033;-43
2023/05/31 03:48:45;;;;;;;16.58;7.55;;;;;;;10.80;100.00;102675.69;5091198;28;20105;-47
2023/05/31 03:51:10;;;;;;;15.45;7.57;;;;;;;10.79;100.00;102679.38;5078309;28;20027;-47
2023/05/31 03:53:36;;;;;;;14.52;7.28;;;;;;;10.81;100.00;102677.38;5072260;28;20035;-46
2023/05/31 03:56:01;;;;;;;18.27;7.65;;;;;;;10.85;100.00;102678.81;5085454;28;20099;-46
2023/05/31 03:58:27;;;;;;;24.52;8.05;;;;;;;10.87;100.00;102676.81;5085305;28;20032;-46
2023/05/31 04:00:52;;;;;;;17.67;7.90;;;;;;;10.91;100.00;102678.25;5078635;28;20515;-45
2023/05/31 04:03:17;;;;;;;20.08;7.80;;;;;;;10.90;100.00;102673.84;5078430;28;20024;-46
2023/05/31 04:05:43;;;;;;;18.27;7.45;;;;;;;10.92;100.00;102675.41;5079682;28;20024;-51
2023/05/31 04:08:08;;;;;;;20.98;7.68;;;;;;;10.94;100.00;102681.53;5090220;28;20036;-46
2023/05/31 04:10:34;;;;;;;15.98;7.50;;;;;;;10.96;100.00;102687.63;5092085;28;20024;-45
2023/05/31 04:12:59;;;;;;;17.40;7.93;;;;;;;10.94;100.00;102689.59;5090605;28;20213;-48
2023/05/31 04:15:25;;;;;;;17.02;8.18;;;;;;;10.99;100.00;102686.50;5067306;28;20463;-49
2023/05/31 04:17:52;;;;;;;19.92;8.23;;;;;;;11.02;100.00;102694.28;5090817;28;20031;-46
2023/05/31 04:20:18;;;;;;;16.10;8.05;;;;;;;11.07;100.00;102689.34;5088443;28;20389;-45
2023/05/31 04:22:44;;;;;;;16.60;7.60;;;;;;;11.08;100.00;102691.03;5084429;28;20027;-48
2023/05/31 04:25:09;;;;;;;16.75;7.07;;;;;;;11.10;100.00;102686.38;5073627;28;20029;-46
2023/05/31 04:27:38;;;;;;;15.95;7.43;;;;;;;11.12;100.00;102697.00;5073134;28;20066;-45
2023/05/31 04:30:05;;;;;;;16.02;7.80;;;;;;;11.13;100.00;102694.16;5073076;28;20115;-46
2023/05/31 04:32:34;;;;;;;16.47;7.60;;;;;;;11.21;100.00;102697.00;5078620;28;20369;-49
2023/05/31 04:35:03;;;;;;;19.25;7.40;;;;;;;11.25;100.00;102699.44;5074632;28;20279;-45
2023/05/31 04:37:33;;;;;;;20.73;7.82;;;;;;;11.27;100.00;102695.63;5083437;28;20039;-48
2023/05/31 04:39:59;;;;;;;21.42;7.18;;;;;;;11.29;100.00;102703.53;5091570;28;20024;-49
2023/05/31 04:42:27;;;;;;;18.40;7.97;;;;;;;11.28;100.00;102689.22;5085000;28;20093;-47
2023/05/31 04:45:01;;;;;;;17.67;7.35;;;;;;;11.34;100.00;102690.50;5086407;28;20036;-48
2023/05/31 04:47:32;;;;;;;21.58;8.68;;;;;;;11.40;100.00;102684.53;5092667;28;20040;-46
2023/05/31 04:49:58;;;;;;;27.83;8.60;;;;;;;11.42;100.00;102688.78;5085512;28;20036;-46
2023/05/31 04:52:26;;;;;;;22.00;8.35;;;;;;;11.49;100.00;102691.78;5089910;28;20051;-46
2023/05/31 04:54:53;;;;;;;18.58;6.90;;;;;;;11.54;100.00;102685.97;5083405;28;20039;-44
2023/05/31 04:57:19;;;;;;;24.27;8.40;;;;;;;11.58;100.00;102682.81;5090019;28;20036;-45
2023/05/31 04:59:44;;;;;;;19.80;7.88;;;;;;;11.67;100.00;102681.13;5093379;28;20496;-48
2023/05/31 05:02:09;;;;;;;14.98;7.20;;;;;;;11.72;100.00;102673.44;5081045;28;20089;-47
2023/05/31 05:04:35;;;;;;;20.83;8.75;;;;;;;11.80;100.00;102676.25;5080004;28;20107;-44
2023/05/31 05:07:00;;;;;;;18.23;8.15;;;;;;;11.80;100.00;102676.25;5081709;28;20522;-45
2023/05/31 05:09:26;;;;;;;20.63;8.88;;;;;;;11.85;100.00;102684.78;5076885;28;20119;-45
2023/05/31 05:11:53;;;;;;;18.17;8.02;;;;;;;11.96;100.00;102685.63;5084575;28;20028;-44
2023/05/31 05:14:18;;;;;;;20.83;9.15;;;;;;;11.99;100.00;102683.50;5080937;28;20024;-51
2023/05/31 05:16:44;;;;;;;26.08;9.48;;;;;;;12.05;100.00;102680.19;5083680;28;20561;-46
2023/05/31 05:19:10;;;;;;;22.13;9.77;;;;;;;12.16;100.00;102681.03;5090842;28;20039;-45
2023/05/31 05:21:36;;;;;;;17.30;9.70;;;;;;;12.22;100.00;102675.91;5092867;28;20355;-46
2023/05/31 05:24:01;;;;;;;23.33;9.88;;;;;;;12.29;100.00;102681.53;5089321;28;20055;-48
2023/05/31 05:26:27;;;;;;;24.95;9.00;;;;;;;12.43;100.00;102683.78;5072827;28;20505;-47
2023/05/31 05:28:52;;;;;;;17.98;8.65;;;;;;;12.52;100.00;102682.84;5085436;28;20474;-43
2023/05/31 05:31:17;;;;;;;23.42;8.82;;;;;;;12.62;100.00;102684.66;5074475;28;20035;-49
2023/05/31 05:33:43;;;;;;;19.30;7.65;;;;;;;12.69;100.00;102688.44;5083528;28;20094;-44
2023/05/31 05:36:08;;;;;;;22.50;8.38;;;;;;;12.78;100.00;102698.38;5081917;28;20036;-47
2023/05/31 05:38:33;;;;;;;26.10;8.52;;;;;;;12.84;100.00;102681.53;5091873;28;20024;-45
2023/05/31 05:40:59;;;;;;;20.00;8.60;;;;;;;12.90;100.00;102691.75;5092316;28;20440;-44
2023/05/31 05:43:24;;;;;;;19.77;8.57;;;;;;;12.97;100.00;102689.28;5089087;28;20543;-47
2023/05/31 05:45:50;;;;;;;16.02;9.20;;;;;;;13.02;100.00;102683.44;5084751;28;20031;-46
2023/05/31 05:48:15;;;;;;;22.25;8.75;;;;;;;13.16;100.00;102680.19;5090480;28;20152;-47
2023/05/31 05:50:40;;;;;;;22.20;8.98;;;;;;;13.23;100.00;102680.44;5091250;28;20058;-46
2023/05/31 05:53:06;;;;;;;21.15;9.02;;;;;;;13.25;100.00;102673.00;5091163;28;20377;-44
2023/05/31 05:55:33;;;;;;;18.05;8.50;;;;;;;13.25;100.00;102668.44;5089148;28;20104;-46
2023/05/31 05:57:59;;;;;;;20.08;9.10;;;;;;;13.34;100.00;102672.09;5088956;28;20049;-48
2023/05/31 06:00:24;;;;;;;21.35;9.25;;;;;;;13.42;100.00;102674.88;5070537;28;20051;-45
2023/05/31 06:02:49;;;;;;;17.42;8.55;;;;;;;13.52;100.00;102674.78;5086815;28;20123;-47
2023/05/31 06:05:16;;;;;;;22.30;9.40;;;;;;;13.60;100.00;102673.00;5082944;28;20054;-47
2023/05/31 06:07:42;;;;;;;19.50;9.40;;;;;;;13.72;100.00;102676.31;5086190;28;20458;-47
2023/05/31 06:10:08;;;;;;;19.38;9.13;;;;;;;13.77;100.00;102668.56;5072445;28;20055;-47
2023/05/31 06:12:33;;;;;;;22.60;9.48;;;;;;;13.84;100.00;102672.31;5070568;28;20017;-46
2023/05/31 06:14:59;;;;;;;17.48;8.98;;;;;;;14.02;100.00;102671.44;5074297;28;20020;-47
2023/05/31 06:17:24;;;;;;;19.98;8.82;;;;;;;14.12;100.00;102676.75;5075736;28;20131;-49
2023/05/31 06:19:49;;;;;;;24.15;9.95;;;;;;;14.49;100.00;102671.84;5085424;28;20028;-49
2023/05/31 06:22:15;;;;;;;22.05;9.15;;;;;;;14.84;100.00;102653.69;5072339;28;20036;-47
2023/05/31 06:24:40;;;;;;;16.20;9.02;;;;;;;15.06;100.00;102656.75;5070632;28;20051;-45
2023/05/31 06:27:06;;;;;;;16.20;8.50;;;;;;;15.28;100.00;102652.56;5085718;28;20069;-47
2023/05/31 06:29:32;;;;;;;21.65;9.07;;;;;;;15.61;100.00;102657.97;5086765;28;20054;-51
2023/05/31 06:31:57;;;;;;;19.25;8.70;;;;;;;15.93;100.00;102652.53;5052020;28;20547;-49
2023/05/31 06:34:23;;;;;;;18.23;9.10;;;;;;;16.09;100.00;102651.66;5068627;28;20036;-47
2023/05/31 06:36:48;;;;;;;17.60;9.15;;;;;;;16.30;100.00;102648.34;5082940;28;20478;-46
2023/05/31 06:39:13;;;;;;;20.60;9.68;;;;;;;16.21;100.00;102654.81;5080109;28;20024;-50
2023/05/31 06:41:39;;;;;;;18.67;9.65;;;;;;;16.26;100.00;102659.75;5085754;28;20054;-50
2023/05/31 06:44:04;;;;;;;20.98;9.23;;;;;;;16.17;100.00;102667.09;5081999;28;20047;-46
2023/05/31 06:46:30;;;;;;;19.98;9.98;;;;;;;16.06;100.00;102657.44;5079876;28;20069;-46
2023/05/31 06:48:55;;;;;;;25.23;9.23;;;;;;;16.16;100.00;102651.78;5084248;28;20035;-45
2023/05/31 06:51:22;;;;;;;20.00;9.32;;;;;;;16.36;100.00;102655.78;5082072;28;20072;-48
2023/05/31 06:53:48;;;;;;;20.58;9.43;;;;;;;16.86;100.00;102646.41;5083565;28;20046;-46
2023/05/31 06:56:14;;;;;;;18.38;9.48;;;;;;;17.50;100.00;102650.66;5084633;28;20066;-49
2023/05/31 06:58:40;;;;;;;17.20;8.85;;;;;;;18.12;100.00;102650.41;5084939;28;20036;-47
2023/05/31 07:01:06;;;;;;;27.73;10.00;;;;;;;18.83;100.00;102636.25;5087733;28;20525;-46
2023/05/31 07:03:31;;;;;;;21.63;9.88;;;;;;;19.76;100.00;102638.97;5081047;28;20040;-48
2023/05/31 07:05:57;;;;;;;14.00;8.23;;;;;;;20.65;100.00;102636.31;5085116;28;20032;-46
2023/05/31 07:08:22;;;;;;;18.65;9.63;;;;;;;21.24;100.00;102632.84;5084180;28;20067;-48
2023/05/31 07:10:47;;;;;;;16.90;9.50;;;;;;;21.81;100.00;102646.16;5084066;28;20106;-47
2023/05/31 07:13:13;;;;;;;17.38;9.27;;;;;;;21.84;100.00;102640.22;5082905;28;20083;-48
2023/05/31 07:15:38;;;;;;;16.63;9.27;;;;;;;22.24;100.00;102635.50;5083550;28;20752;-49
2023/05/31 07:18:03;;;;;;;14.68;8.43;;;;;;;22.60;96.01;102630.53;5084078;28;20047;-48
2023/05/31 07:20:29;;;;;;;20.35;8.70;;;;;;;22.67;93.95;102634.03;5081074;28;20039;-47
2023/05/31 07:22:54;;;;;;;20.20;8.70;;;;;;;23.07;93.35;102633.88;5083007;28;20032;-46
2023/05/31 07:25:20;;;;;;;14.73;8.45;;;;;;;23.69;89.44;102632.03;5084528;28;20078;-46
2023/05/31 07:27:45;;;;;;;12.43;8.20;;;;;;;23.82;86.82;102629.19;5082983;28;20039;-48
2023/05/31 07:30:11;;;;;;;15.13;8.27;;;;;;;24.00;85.71;102628.38;5065397;28;20042;-46
2023/05/31 07:32:36;;;;;;;16.83;8.20;;;;;;;24.30;85.03;102627.59;5084524;28;20452;-47
2023/05/31 07:35:02;;;;;;;14.02;7.40;;;;;;;24.52;83.11;102625.25;5083088;28;20038;-48
2023/05/31 07:37:28;;;;;;;14.20;7.35;;;;;;;24.78;81.25;102625.94;5084214;28;20044;-48
2023/05/31 07:39:53;;;;;;;14.43;8.02;;;;;;;24.95;80.66;102625.03;5084916;28;20490;-46
2023/05/31 07:42:19;;;;;;;13.70;7.97;;;;;;;25.01;78.53;102623.25;5084478;28;20077;-47
2023/05/31 07:44:45;;;;;;;15.55;7.70;;;;;;;24.73;78.64;102627.47;5085285;28;20024;-48
2023/05/31 07:47:10;;;;;;;13.60;7.43;;;;;;;24.43;80.48;102627.44;5083143;28;20462;-47
2023/05/31 07:49:35;;;;;;;13.38;7.50;;;;;;;24.70;80.76;102627.13;5084613;28;20086;-48
2023/05/31 07:52:01;;;;;;;13.55;7.35;;;;;;;25.03;77.23;102626.59;5082697;28;20028;-49
2023/05/31 07:54:27;;;;;;;13.18;7.20;;;;;;;25.18;77.39;102617.94;5084275;28;20569;-47
2023/05/31 07:56:52;;;;;;;12.75;6.90;;;;;;;25.33;75.70;102622.97;5082759;28;20193;-49
2023/05/31 07:59:18;;;;;;;13.93;6.90;;;;;;;25.24;75.32;102622.50;5082196;28;20103;-45
2023/05/31 08:01:43;;;;;;;15.82;6.82;;;;;;;25.08;75.35;102624.00;5082613;28;20103;-47
2023/05/31 08:04:10;;;;;;;13.05;6.93;;;;;;;24.82;76.49;102624.41;5082567;28;20381;-47
2023/05/31 08:06:36;;;;;;;;;;;;;;;24.70;75.87;102622.44;5084718;28;20521;-50
2023/05/31 08:09:04;;;;;;;11.65;6.80;;;;;;;24.79;75.93;102620.19;5085030;28;19920;-47
2023/05/31 08:11:29;;;;;;;9.82;6.30;;;;;;;24.72;76.98;102614.81;5082589;28;20486;-47
2023/05/31 08:13:55;;;;;;;12.73;6.57;;;;;;;24.66;77.71;102621.22;5084263;28;20114;-45
2023/05/31 08:16:20;;;;;;;13.77;7.80;;;;;;;25.04;76.60;102617.28;5085626;28;20456;-48
2023/05/31 08:18:45;;;;;;;14.45;6.40;;;;;;;25.29;75.28;102603.34;5082675;28;21805;-47
2023/05/31 08:21:11;;;;;;;14.85;6.43;;;;;;;25.58;73.82;102618.09;5087123;28;20021;-48
2023/05/31 08:23:36;;;;;;;12.15;6.20;;;;;;;25.42;74.17;102610.53;5086580;28;20042;-48
2023/05/31 08:26:02;;;;;;;13.82;6.30;;;;;;;25.77;73.61;102609.69;5087650;28;20034;-47
2023/05/31 08:28:29;;;;;;;12.70;5.95;;;;;;;26.06;70.99;102608.69;5085314;28;20093;-47
2023/05/31 08:30:55;;;;;;;16.58;6.00;;;;;;;26.37;71.01;102612.09;5084512;28;20542;-46
2023/05/31 08:33:20;;;;;;;9.88;5.85;;;;;;;26.89;68.42;102606.50;5085987;28;20040;-49
2023/05/31 08:35:45;;;;;;;10.57;5.88;;;;;;;27.42;66.91;102603.53;5087599;28;20058;-49
2023/05/31 08:38:11;;;;;;;9.88;6.07;;;;;;;27.51;65.86;102593.69;5087614;28;20115;-46
2023/05/31 08:40:37;;;;;;;9.27;5.65;;;;;;;27.58;64.70;102594.38;5087823;28;20101;-49
2023/05/31 08:43:07;;;;;;;12.60;7.07;;;;;;;27.58;62.95;102597.13;5087620;28;20035;-48
2023/05/31 08:45:34;;;;;;;15.05;7.07;;;;;;;27.48;64.10;102589.50;5087645;28;20028;-47
2023/05/31 08:48:06;;;;;;;12.98;5.78;;;;;;;27.39;64.61;102588.28;5085035;28;20104;-47
2023/05/31 08:50:32;;;;;;;8.55;5.82;;;;;;;27.73;62.52;102588.22;5087301;28;20043;-46
2023/05/31 08:52:58;;;;;;;11.18;5.78;;;;;;;27.44;63.68;102591.13;5086586;28;20484;-47
2023/05/31 08:55:24;;;;;;;10.20;5.53;;;;;;;27.70;62.99;102595.09;5085743;28;20106;-45
2023/05/31 08:57:50;;;;;;;9.55;4.90;;;;;;;28.05;62.93;102590.34;5085755;28;20062;-48
2023/05/31 09:00:16;;;;;;;10.90;5.70;;;;;;;28.02;60.90;102592.53;5084676;28;20393;-48
2023/05/31 09:02:41;;;;;;;16.15;6.57;;;;;;;27.63;61.05;102586.16;5087005;28;20056;-50
2023/05/31 09:05:11;;;;;;;9.18;5.97;;;;;;;27.61;60.60;102596.63;5086068;28;20392;-47
2023/05/31 09:07:37;;;;;;;10.18;6.30;;;;;;;27.14;62.34;102585.91;5086554;28;20036;-46
2023/05/31 09:10:05;;;;;;;10.48;6.72;;;;;;;26.75;63.36;102585.78;5087543;28;20028;-43
2023/05/31 09:12:31;;;;;;;14.52;6.43;;;;;;;26.69;63.77;102584.03;5086918;28;20878;-47
2023/05/31 09:14:56;;;;;;;9.80;5.65;;;;;;;26.63;65.45;102582.25;5085752;28;20177;-45
2023/05/31 09:17:22;;;;;;;9.20;5.82;;;;;;;26.57;64.76;102586.00;5086076;28;20032;-45
2023/05/31 09:19:52;;;;;;;15.43;6.90;;;;;;;26.36;64.78;102577.31;5086539;28;20486;-48
2023/05/31 09:22:18;;;;;;;10.25;5.15;;;;;;;26.01;66.60;102578.28;5085850;28;20028;-45
2023/05/31 09:24:57;;;;;;;12.85;6.00;;;;;;;26.18;66.36;102586.59;5087211;28;20496;-45
2023/05/31 09:27:23;;;;;;;13.23;5.45;;;;;;;26.32;65.96;102578.88;5085886;28;20032;-48
2023/05/31 09:29:56;;;;;;;12.85;5.18;;;;;;;26.63;65.76;102572.06;5087594;28;20024;-47
2023/05/31 09:32:21;;;;;;;14.43;5.70;;;;;;;27.00;62.55;102573.53;5086036;28;20315;-46
2023/05/31 09:34:47;;;;;;;10.55;6.60;;;;;;;26.89;63.67;102573.34;5086874;28;20024;-44
2023/05/31 09:37:23;;;;;;;12.75;6.70;;;;;;;26.80;64.82;102569.31;5089117;28;20169;-45
2023/05/31 09:39:57;;;;;;;10.98;6.05;;;;;;;26.65;66.59;102566.28;5085288;28;20028;-47
2023/05/31 09:42:26;;;;;;;11.77;6.88;;;;;;;27.07;65.33;102557.63;5086062;28;20032;-47
2023/05/31 09:44:52;;;;;;;10.35;5.43;;;;;;;27.40;64.93;102567.81;5084870;28;20119;-48
2023/05/31 09:47:23;;;;;;;13.18;5.57;;;;;;;27.59;61.93;102565.59;5084706;28;20115;-49
2023/05/31 09:49:48;;;;;;;16.02;6.88;;;;;;;27.44;61.76;102568.19;5083584;28;20088;-47
2023/05/31 09:52:14;;;;;;;13.73;6.50;;;;;;;27.58;61.91;102563.94;5086046;28;20376;-47
2023/05/31 09:54:40;;;;;;;10.45;5.88;;;;;;;27.50;62.57;102561.63;5082835;28;20413;-48
2023/05/31 09:57:06;;;;;;;7.30;5.10;;;;;;;27.30;61.23;102568.50;5086206;28;20046;-46
2023/05/31 09:59:32;;;;;;;13.38;6.20;;;;;;;27.54;61.17;102569.16;5084014;28;20044;-48
2023/05/31 10:01:58;;;;;;;10.90;5.38;;;;;;;27.74;62.96;102567.75;5086492;28;20137;-47
2023/05/31 10:04:23;;;;;;;8.40;5.07;;;;;;;27.95;60.70;102568.91;5085321;28;20075;-43
2023/05/31 10:06:49;;;;;;;8.18;5.25;;;;;;;28.18;59.94;102568.63;5083223;28;20031;-47
2023/05/31 10:09:15;;;;;;;10.47;5.50;;;;;;;27.95;58.00;102557.81;5084168;28;20020;-47
2023/05/31 10:11:42;;;;;;;10.05;5.88;;;;;;;27.69;60.57;102565.75;5085909;28;20278;-48
2023/05/31 10:14:12;;;;;;;11.32;5.78;;;;;;;27.88;61.33;102557.19;5085296;28;20027;-47
2023/05/31 10:16:44;;;;;;;11.13;5.68;;;;;;;28.06;60.76;102559.63;5084514;28;20048;-48
2023/05/31 10:19:11;;;;;;;13.95;5.55;;;;;;;28.04;59.39;102550.72;5084941;28;20462;-46
2023/05/31 10:21:41;;;;;;;12.18;6.20;;;;;;;27.07;60.20;102552.94;5086564;28;20140;-48
2023/05/31 10:24:09;;;;;;;10.80;5.93;;;;;;;27.02;63.21;102543.72;5084829;28;20473;-48
2023/05/31 10:27:14;;;;;;;14.63;5.53;;;;;;;27.56;61.44;102549.53;5084380;28;20032;-45
2023/05/31 10:29:42;;;;;;;9.90;5.57;;;;;;;27.61;59.57;102541.31;5085929;28;20132;-47
2023/05/31 10:32:38;;;;;;;10.10;5.15;;;;;;;27.99;59.36;102539.63;5066485;28;20027;-49
2023/05/31 10:35:04;;;;;;;9.40;5.43;;;;;;;27.93;59.10;102537.88;5066339;28;20040;-46
2023/05/31 10:37:30;;;;;;;11.23;5.20;;;;;;;28.51;58.91;102532.72;5083922;28;20032;-45
2023/05/31 10:40:18;;;;;;;16.05;6.30;;;;;;;28.38;58.32;102531.19;5084462;28;20039;-45
2023/05/31 10:43:07;;;;;;;9.25;5.53;;;;;;;28.29;58.68;102530.81;5086659;28;20020;-46
2023/05/31 10:45:32;;;;;;;12.55;5.50;;;;;;;28.80;58.16;102536.03;5080890;28;20120;-49
2023/05/31 10:48:15;;;;;;;9.95;5.45;;;;;;;28.51;55.96;102530.78;5082753;28;20027;-48
2023/05/31 10:50:53;;;;;;;15.02;5.60;;;;;;;27.69;59.35;102526.19;5084747;28;20036;-48
2023/05/31 10:53:19;;;;;;;10.70;5.05;;;;;;;27.55;57.15;102525.75;5083697;28;20115;-48
2023/05/31 10:55:47;;;;;;;12.43;6.10;;;;;;;27.26;59.48;102527.81;5083457;28;20525;-45
2023/05/31 10:58:30;;;;;;;;;;;;;;;27.36;60.36;102523.28;5086032;28;20028;-47
2023/05/31 11:00:56;;;;;;;15.57;5.43;;;;;;;27.41;57.92;102518.88;5082827;28;20002;-49
2023/05/31 11:03:23;;;;;;;13.02;5.45;;;;;;;27.42;59.57;102523.34;5082391;28;20102;-46
2023/05/31 11:05:56;;;;;;;13.98;5.70;;;;;;;27.76;59.35;102518.56;5083326;28;20067;-46
2023/05/31 11:08:22;;;;;;;13.30;5.53;;;;;;;28.02;56.47;102514.19;5084640;28;20077;-45
2023/05/31 11:10:48;;;;;;;11.23;5.10;;;;;;;27.97;57.34;102517.72;5083129;28;20847;-47
2023/05/31 11:13:14;;;;;;;15.00;4.38;;;;;;;27.84;57.88;102514.53;5085165;28;20024;-45